createdAt,value
2023-06-19T00:01:12.130Z,7.90
2023-06-19T00:03:39.487Z,7.60
2023-06-19T00:06:07.729Z,7.78
2023-06-19T00:08:35.000Z,8.05
2023-06-19T00:11:02.234Z,7.80
2023-06-19T00:13:29.492Z,8.00
2023-06-19T00:16:01.530Z,7.90
2023-06-19T00:18:29.596Z,8.10
2023-06-19T00:20:57.813Z,7.60
2023-06-19T00:23:25.144Z,7.60
2023-06-19T00:25:52.532Z,7.53
2023-06-19T00:28:21.256Z,7.18
2023-06-19T00:30:48.493Z,7.40
2023-06-19T00:33:15.817Z,7.53
2023-06-19T00:35:43.213Z,8.07
2023-06-19T00:38:10.458Z,8.15
2023-06-19T00:40:37.808Z,8.00
2023-06-19T00:43:05.257Z,8.75
2023-06-19T00:45:32.690Z,8.52
2023-06-19T00:48:01.579Z,8.35
2023-06-19T00:50:31.164Z,8.30
2023-06-19T00:52:59.336Z,7.88
2023-06-19T00:55:27.419Z,8.07
2023-06-19T00:57:54.993Z,7.43
2023-06-19T01:00:22.670Z,7.38
2023-06-19T01:02:50.264Z,7.97
2023-06-19T01:05:17.995Z,7.20
2023-06-19T01:07:54.570Z,8.30
2023-06-19T01:10:23.481Z,8.05
2023-06-19T01:12:53.296Z,8.15
2023-06-19T01:15:21.255Z,7.90
2023-06-19T01:17:48.977Z,8.02
2023-06-19T01:20:16.865Z,8.18
2023-06-19T01:22:45.155Z,6.95
2023-06-19T01:25:15.443Z,7.65
2023-06-19T01:27:43.848Z,7.40
2023-06-19T01:30:11.860Z,7.20
2023-06-19T01:32:57.601Z,6.95
2023-06-19T01:35:26.541Z,7.88
2023-06-19T01:37:54.441Z,7.90
2023-06-19T01:40:25.899Z,7.75
2023-06-19T01:42:56.907Z,7.63
2023-06-19T01:45:24.378Z,8.27
2023-06-19T01:47:51.724Z,7.75
2023-06-19T01:50:19.058Z,7.22
2023-06-19T01:52:46.781Z,7.10
2023-06-19T01:55:14.128Z,6.80
2023-06-19T01:57:41.587Z,6.85
2023-06-19T02:00:11.263Z,6.53
2023-06-19T02:02:39.098Z,6.80
2023-06-19T02:05:06.640Z,6.43
2023-06-19T02:07:33.928Z,6.63
2023-06-19T02:10:01.533Z,6.70
2023-06-19T02:12:28.902Z,6.72
2023-06-19T02:14:56.153Z,6.25
2023-06-19T02:17:23.439Z,6.43
2023-06-19T02:19:50.823Z,7.13
2023-06-19T02:22:18.298Z,6.28
2023-06-19T02:24:45.916Z,6.15
2023-06-19T02:27:13.149Z,6.20
2023-06-19T02:29:40.420Z,6.40
2023-06-19T02:32:07.751Z,6.95
2023-06-19T02:34:35.096Z,6.50
2023-06-19T02:37:02.357Z,6.53
2023-06-19T02:39:29.598Z,6.05
2023-06-19T02:41:56.853Z,6.40
2023-06-19T02:44:24.171Z,6.30
2023-06-19T02:46:51.580Z,6.40
2023-06-19T02:49:18.845Z,6.25
2023-06-19T02:51:47.604Z,5.88
2023-06-19T02:54:14.911Z,6.57
2023-06-19T02:56:42.512Z,6.30
2023-06-19T02:59:10.084Z,6.60
2023-06-19T03:01:37.431Z,6.00
2023-06-19T03:04:04.926Z,6.07
2023-06-19T03:06:32.263Z,6.10
2023-06-19T03:09:00.511Z,5.95
2023-06-19T03:11:27.827Z,5.80
2023-06-19T03:13:55.753Z,7.28
2023-06-19T03:16:23.251Z,6.68
2023-06-19T03:18:52.943Z,5.72
2023-06-19T03:21:21.141Z,5.75
2023-06-19T03:23:48.858Z,5.47
2023-06-19T03:26:16.084Z,5.00
2023-06-19T03:28:43.407Z,5.05
2023-06-19T03:31:10.770Z,5.20
2023-06-19T03:33:38.048Z,4.78
2023-06-19T03:36:05.549Z,4.93
2023-06-19T03:38:32.784Z,4.47
2023-06-19T03:41:01.250Z,7.93
2023-06-19T03:43:28.552Z,4.60
2023-06-19T03:45:55.974Z,4.32
2023-06-19T03:48:24.023Z,4.70
2023-06-19T03:50:51.235Z,4.05
2023-06-19T03:53:18.471Z,7.47
2023-06-19T03:55:45.858Z,4.50
2023-06-19T03:58:13.259Z,3.95
2023-06-19T04:00:40.678Z,3.03
2023-06-19T04:03:09.572Z,3.13
2023-06-19T04:05:37.088Z,3.22
2023-06-19T04:08:05.211Z,3.50
2023-06-19T04:10:33.931Z,2.90
2023-06-19T04:13:03.842Z,6.60
2023-06-19T04:15:33.258Z,7.88
2023-06-19T04:18:02.132Z,4.55
2023-06-19T04:20:29.451Z,3.85
2023-06-19T04:22:56.686Z,3.95
2023-06-19T04:25:24.004Z,2.88
2023-06-19T04:27:51.290Z,3.10
2023-06-19T04:30:18.659Z,3.30
2023-06-19T04:32:46.470Z,3.25
2023-06-19T04:35:13.892Z,3.45
2023-06-19T04:37:41.142Z,3.30
2023-06-19T04:40:09.218Z,3.13
2023-06-19T04:42:36.595Z,3.03
2023-06-19T04:45:03.857Z,3.22
2023-06-19T04:47:43.709Z,3.08
2023-06-19T04:50:18.587Z,3.00
2023-06-19T04:52:45.902Z,2.70
2023-06-19T04:55:13.175Z,2.47
2023-06-19T04:57:40.493Z,2.70
2023-06-19T05:00:08.345Z,2.92
2023-06-19T05:02:35.828Z,2.85
2023-06-19T05:05:04.621Z,2.70
2023-06-19T05:07:33.044Z,2.65
2023-06-19T05:10:00.687Z,2.60
2023-06-19T05:12:27.998Z,3.65
2023-06-19T05:14:55.266Z,3.35
2023-06-19T05:17:22.641Z,3.10
2023-06-19T05:19:50.809Z,2.20
2023-06-19T05:22:19.774Z,2.20
2023-06-19T05:24:47.067Z,2.20
2023-06-19T05:27:14.308Z,2.35
2023-06-19T05:29:41.608Z,2.20
2023-06-19T05:32:08.970Z,2.55
2023-06-19T05:34:36.234Z,2.22
2023-06-19T05:37:04.777Z,2.05
2023-06-19T05:39:32.071Z,2.10
2023-06-19T05:41:59.341Z,2.00
2023-06-19T05:44:27.864Z,2.00
2023-06-19T05:46:55.212Z,2.15
2023-06-19T05:49:22.675Z,2.03
2023-06-19T05:51:50.015Z,2.30
2023-06-19T05:54:18.970Z,1.90
2023-06-19T05:56:48.137Z,2.28
2023-06-19T05:59:15.753Z,2.55
2023-06-19T06:01:43.402Z,2.47
2023-06-19T06:04:11.130Z,2.33
2023-06-19T06:06:38.513Z,2.20
2023-06-19T06:09:06.099Z,2.00
2023-06-19T06:11:33.378Z,2.33
2023-06-19T06:14:00.617Z,2.20
2023-06-19T06:16:28.392Z,2.55
2023-06-19T06:18:55.789Z,2.50
2023-06-19T06:21:23.024Z,2.67
2023-06-19T06:23:50.355Z,2.80
2023-06-19T06:26:17.602Z,2.88
2023-06-19T06:28:44.926Z,2.67
2023-06-19T06:31:12.222Z,3.05
2023-06-19T06:33:39.948Z,2.80
2023-06-19T06:36:08.894Z,3.13
2023-06-19T06:38:36.668Z,3.10
2023-06-19T06:41:04.212Z,2.78
2023-06-19T06:43:32.347Z,3.20
2023-06-19T06:46:00.085Z,3.38
2023-06-19T06:48:27.482Z,3.00
2023-06-19T06:51:00.348Z,3.45
2023-06-19T06:53:29.148Z,3.30
2023-06-19T06:55:57.013Z,3.50
2023-06-19T06:58:24.391Z,3.58
2023-06-19T07:00:52.242Z,4.07
2023-06-19T07:03:19.798Z,3.70
2023-06-19T07:05:47.285Z,3.42
2023-06-19T07:08:14.677Z,3.25
2023-06-19T07:10:42.033Z,3.85
2023-06-19T07:13:09.933Z,3.55
2023-06-19T07:15:37.152Z,3.28
2023-06-19T07:18:04.690Z,4.03
2023-06-19T07:20:31.979Z,3.58
2023-06-19T07:22:59.554Z,4.20
2023-06-19T07:25:26.882Z,4.20
2023-06-19T07:27:54.431Z,3.80
2023-06-19T07:30:29.378Z,4.10
2023-06-19T07:32:56.798Z,3.80
2023-06-19T07:35:24.071Z,4.38
2023-06-19T07:37:51.314Z,4.22
2023-06-19T07:40:18.581Z,4.30
2023-06-19T07:42:46.303Z,4.32
2023-06-19T07:45:14.373Z,4.70
2023-06-19T07:47:44.926Z,4.22
2023-06-19T07:50:12.239Z,5.10
2023-06-19T07:52:39.638Z,5.03
2023-06-19T07:55:07.175Z,4.68
2023-06-19T07:57:34.701Z,4.45
2023-06-19T08:00:07.261Z,4.68
2023-06-19T08:02:34.570Z,4.47
2023-06-19T08:05:01.894Z,4.82
2023-06-19T08:07:29.236Z,4.60
2023-06-19T08:10:04.197Z,4.80
2023-06-19T08:12:39.238Z,4.82
2023-06-19T08:15:06.803Z,5.15
2023-06-19T08:17:34.112Z,4.70
2023-06-19T08:20:01.455Z,4.40
2023-06-19T08:22:28.727Z,4.78
2023-06-19T08:24:55.986Z,4.32
2023-06-19T08:27:23.219Z,4.30
2023-06-19T08:29:50.558Z,4.60
2023-06-19T08:32:18.462Z,3.60
2023-06-19T08:34:45.709Z,3.60
2023-06-19T08:37:13.601Z,4.00
2023-06-19T08:39:40.856Z,4.20
2023-06-19T08:42:08.612Z,3.90
2023-06-19T08:44:39.552Z,4.07
2023-06-19T08:47:07.487Z,3.90
2023-06-19T08:49:35.925Z,4.05
2023-06-19T08:52:03.986Z,3.50
2023-06-19T08:54:31.377Z,3.60
2023-06-19T08:57:02.265Z,3.83
2023-06-19T08:59:29.765Z,3.60
2023-06-19T09:01:57.342Z,3.70
2023-06-19T09:04:27.588Z,3.15
2023-06-19T09:06:55.652Z,2.97
2023-06-19T09:09:23.947Z,2.97
2023-06-19T09:12:01.355Z,3.40
2023-06-19T09:14:35.019Z,3.20
2023-06-19T09:17:03.026Z,3.40
2023-06-19T09:19:30.660Z,3.25
2023-06-19T09:22:01.795Z,2.97
2023-06-19T09:24:35.831Z,3.15
2023-06-19T09:27:19.182Z,2.95
2023-06-19T09:29:55.375Z,2.85
2023-06-19T09:32:27.131Z,2.92
2023-06-19T09:34:55.395Z,3.10
2023-06-19T09:37:25.657Z,3.40
2023-06-19T09:39:55.051Z,3.13
2023-06-19T09:42:42.591Z,3.00
2023-06-19T09:45:15.958Z,2.97
2023-06-19T09:47:48.692Z,2.90
2023-06-19T09:50:18.402Z,2.67
2023-06-19T09:52:46.489Z,2.38
2023-06-19T09:55:14.869Z,2.45
2023-06-19T09:57:43.060Z,2.47
2023-06-19T10:00:16.508Z,2.60
2023-06-19T10:02:45.260Z,2.08
2023-06-19T10:05:15.257Z,2.28
2023-06-19T10:07:44.157Z,2.00
2023-06-19T10:10:13.816Z,2.00
2023-06-19T10:12:45.093Z,2.00
2023-06-19T10:15:19.961Z,1.70
2023-06-19T10:17:47.216Z,2.10
2023-06-19T10:20:32.380Z,2.03
2023-06-19T10:23:23.720Z,1.90
2023-06-19T10:25:59.356Z,2.00
2023-06-19T10:28:29.901Z,1.92
2023-06-19T10:31:00.400Z,2.05
2023-06-19T10:33:29.003Z,2.10
2023-06-19T10:35:56.359Z,2.10
2023-06-19T10:38:23.664Z,2.05
2023-06-19T10:40:51.004Z,2.10
2023-06-19T10:43:33.044Z,1.95
2023-06-19T10:46:00.364Z,2.20
2023-06-19T10:48:27.792Z,2.30
2023-06-19T10:50:58.404Z,2.80
2023-06-19T10:53:29.358Z,2.90
2023-06-19T10:55:57.542Z,2.33
2023-06-19T10:58:25.198Z,2.60
2023-06-19T11:00:52.558Z,2.38
2023-06-19T11:03:20.966Z,2.40
2023-06-19T11:05:48.906Z,2.20
2023-06-19T11:08:23.090Z,2.45
2023-06-19T11:10:50.649Z,2.45
2023-06-19T11:13:19.186Z,2.50
2023-06-19T11:15:46.734Z,2.42
2023-06-19T11:18:16.611Z,2.30
2023-06-19T11:20:49.328Z,2.25
2023-06-19T11:23:16.631Z,2.50
2023-06-19T11:25:44.228Z,2.40
2023-06-19T11:28:15.336Z,2.33
2023-06-19T11:30:45.969Z,2.38
2023-06-19T11:33:23.418Z,2.50
2023-06-19T11:35:58.472Z,2.45
2023-06-19T11:38:27.283Z,2.40
2023-06-19T11:40:57.919Z,2.30
2023-06-19T11:43:26.524Z,2.47
2023-06-19T11:45:54.070Z,3.00
2023-06-19T11:48:25.147Z,2.33
2023-06-19T11:50:53.128Z,2.35
2023-06-19T11:53:21.291Z,2.47
2023-06-19T11:55:48.692Z,2.90
2023-06-19T11:58:21.484Z,2.63
2023-06-19T12:00:49.231Z,2.95
2023-06-19T12:03:17.522Z,2.35
2023-06-19T12:05:44.962Z,2.88
2023-06-19T12:08:12.277Z,2.67
2023-06-19T12:10:39.544Z,3.05
2023-06-19T12:13:06.890Z,2.95
2023-06-19T12:15:36.774Z,2.67
2023-06-19T12:18:05.679Z,3.05
2023-06-19T12:20:33.073Z,3.13
2023-06-19T12:23:01.456Z,2.90
2023-06-19T12:25:28.914Z,3.10
2023-06-19T12:27:56.364Z,2.92
2023-06-19T12:30:27.922Z,3.00
2023-06-19T12:32:55.349Z,2.58
2023-06-19T12:35:24.196Z,2.65
2023-06-19T12:37:51.542Z,2.60
2023-06-19T12:40:18.986Z,2.72
2023-06-19T12:42:47.129Z,2.60
2023-06-19T12:45:14.435Z,2.78
2023-06-19T12:47:41.751Z,2.60
2023-06-19T12:50:09.462Z,2.78
2023-06-19T12:52:36.903Z,2.90
2023-06-19T12:55:04.307Z,2.80
2023-06-19T12:57:31.558Z,2.55
2023-06-19T12:59:58.797Z,2.72
2023-06-19T13:02:26.243Z,2.88
2023-06-19T13:04:53.873Z,3.15
2023-06-19T13:07:21.169Z,3.55
2023-06-19T13:09:49.446Z,3.05
2023-06-19T13:12:16.752Z,3.00
2023-06-19T13:14:43.990Z,2.88
2023-06-19T13:17:11.500Z,2.97
2023-06-19T13:19:38.933Z,2.90
2023-06-19T13:22:06.185Z,3.20
2023-06-19T13:24:34.659Z,2.85
2023-06-19T13:27:01.985Z,3.15
2023-06-19T13:29:30.113Z,2.88
2023-06-19T13:31:57.358Z,3.17
2023-06-19T13:34:24.752Z,2.80
2023-06-19T13:36:52.089Z,2.83
2023-06-19T13:39:20.593Z,3.17
2023-06-19T13:41:48.524Z,3.20
2023-06-19T13:44:15.947Z,3.40
2023-06-19T13:46:44.221Z,3.22
2023-06-19T13:49:12.272Z,3.25
2023-06-19T13:51:39.599Z,2.95
2023-06-19T13:54:06.901Z,3.78
2023-06-19T13:56:36.266Z,3.53
2023-06-19T13:59:03.958Z,3.58
2023-06-19T14:01:31.390Z,3.40
2023-06-19T14:03:59.057Z,3.67
2023-06-19T14:06:26.717Z,3.08
2023-06-19T14:08:53.993Z,3.42
2023-06-19T14:11:21.442Z,3.40
2023-06-19T14:13:48.855Z,3.70
2023-06-19T14:16:16.290Z,3.22
2023-06-19T14:18:45.739Z,3.70
2023-06-19T14:21:13.082Z,3.42
2023-06-19T14:23:44.289Z,3.50
2023-06-19T14:26:12.325Z,3.40
2023-06-19T14:28:40.418Z,3.38
2023-06-19T14:31:08.016Z,3.70
2023-06-19T14:33:36.929Z,3.42
2023-06-19T14:36:04.681Z,3.55
2023-06-19T14:38:35.370Z,4.40
2023-06-19T14:41:03.196Z,3.65
2023-06-19T14:43:33.575Z,3.33
2023-06-19T14:46:01.401Z,3.50
2023-06-19T14:48:31.504Z,4.07
2023-06-19T14:50:59.436Z,3.70
2023-06-19T14:53:26.849Z,3.47
2023-06-19T14:55:54.356Z,3.50
2023-06-19T14:58:21.767Z,3.50
2023-06-19T15:00:49.581Z,3.05
2023-06-19T15:03:17.118Z,3.53
2023-06-19T15:05:44.423Z,3.60
2023-06-19T15:08:12.864Z,3.70
2023-06-19T15:10:40.306Z,3.35
2023-06-19T15:13:07.625Z,3.30
2023-06-19T15:15:34.925Z,3.28
2023-06-19T15:18:02.535Z,3.55
2023-06-19T15:20:29.967Z,4.00
2023-06-19T15:22:57.440Z,7.35
2023-06-19T15:25:24.818Z,5.40
2023-06-19T15:27:52.307Z,5.25
2023-06-19T15:30:19.616Z,5.30
2023-06-19T15:32:46.931Z,5.50
2023-06-19T15:35:14.358Z,5.47
2023-06-19T15:37:41.650Z,5.20
2023-06-19T15:40:09.331Z,6.10
2023-06-19T15:42:37.781Z,6.00
2023-06-19T15:45:05.851Z,5.80
2023-06-19T15:47:36.389Z,5.93
2023-06-19T15:50:04.913Z,5.70
2023-06-19T15:52:32.197Z,5.45
2023-06-19T15:54:59.558Z,5.72
2023-06-19T15:57:27.690Z,5.40
2023-06-19T15:59:54.917Z,5.57
2023-06-19T16:02:22.369Z,11.18
2023-06-19T16:04:49.847Z,17.08
2023-06-19T16:07:17.113Z,8.45
2023-06-19T16:09:54.352Z,7.60
2023-06-19T16:12:22.859Z,5.18
2023-06-19T16:14:50.297Z,4.55
2023-06-19T16:17:17.592Z,4.65
2023-06-19T16:19:44.935Z,4.95
2023-06-19T16:22:12.770Z,5.20
2023-06-19T16:24:41.293Z,5.00
2023-06-19T16:27:09.003Z,7.78
2023-06-19T16:29:36.429Z,7.35
2023-06-19T16:32:10.278Z,5.43
2023-06-19T16:34:38.411Z,5.85
2023-06-19T16:37:05.952Z,5.35
2023-06-19T16:39:33.438Z,6.32
2023-06-19T16:42:00.684Z,6.20
2023-06-19T16:44:27.953Z,7.10
2023-06-19T16:46:55.312Z,5.88
2023-06-19T16:49:23.629Z,7.13
2023-06-19T16:51:51.202Z,5.38
2023-06-19T16:54:18.775Z,10.32
2023-06-19T16:56:46.108Z,5.82
2023-06-19T16:59:13.326Z,6.75
2023-06-19T17:01:40.622Z,5.25
2023-06-19T17:04:08.586Z,5.20
2023-06-19T17:06:36.776Z,5.00
2023-06-19T17:09:04.278Z,5.40
2023-06-19T17:11:31.732Z,4.68
2023-06-19T17:13:59.222Z,4.63
2023-06-19T17:16:26.553Z,4.53
2023-06-19T17:18:53.814Z,5.43
2023-06-19T17:21:21.058Z,5.10
2023-06-19T17:23:48.443Z,5.20
2023-06-19T17:26:17.697Z,5.05
2023-06-19T17:28:44.967Z,4.82
2023-06-19T17:31:12.187Z,4.55
2023-06-19T17:33:39.406Z,4.65
2023-06-19T17:36:09.176Z,5.20
2023-06-19T17:38:38.341Z,5.10
2023-06-19T17:41:05.618Z,4.80
2023-06-19T17:43:35.510Z,4.90
2023-06-19T17:46:03.127Z,4.97
2023-06-19T17:48:32.506Z,4.20
2023-06-19T17:51:00.067Z,4.50
2023-06-19T17:53:27.378Z,4.70
2023-06-19T17:55:54.623Z,4.60
2023-06-19T17:58:22.967Z,4.72
2023-06-19T18:00:50.267Z,4.78
2023-06-19T18:03:17.576Z,5.20
2023-06-19T18:05:44.853Z,4.90
2023-06-19T18:08:12.176Z,5.05
2023-06-19T18:10:39.573Z,4.47
2023-06-19T18:13:06.980Z,4.57
2023-06-19T18:15:34.343Z,4.55
2023-06-19T18:18:01.740Z,4.70
2023-06-19T18:20:29.328Z,5.18
2023-06-19T18:22:56.922Z,5.00
2023-06-19T18:25:24.164Z,5.15
2023-06-19T18:27:51.399Z,5.00
2023-06-19T18:30:18.659Z,7.78
2023-06-19T18:32:46.019Z,10.85
2023-06-19T18:35:13.537Z,5.90
2023-06-19T18:37:40.855Z,5.05
2023-06-19T18:40:08.313Z,5.30
2023-06-19T18:42:35.912Z,5.55
2023-06-19T18:45:03.186Z,4.93
2023-06-19T18:47:30.467Z,5.93
2023-06-19T18:49:57.872Z,5.55
2023-06-19T18:52:25.130Z,5.47
2023-06-19T18:54:52.498Z,5.30
2023-06-19T18:57:19.838Z,5.78
2023-06-19T18:59:47.250Z,5.80
2023-06-19T19:02:14.554Z,5.90
2023-06-19T19:04:42.977Z,6.18
2023-06-19T19:07:10.377Z,5.82
2023-06-19T19:09:37.689Z,6.28
2023-06-19T19:12:05.142Z,6.07
2023-06-19T19:14:32.399Z,6.45
2023-06-19T19:16:59.754Z,6.72
2023-06-19T19:19:28.440Z,6.45
2023-06-19T19:21:55.711Z,6.40
2023-06-19T19:24:24.256Z,6.28
2023-06-19T19:26:51.886Z,6.32
2023-06-19T19:29:19.208Z,6.45
2023-06-19T19:31:46.520Z,6.50
2023-06-19T19:34:20.713Z,6.40
2023-06-19T19:36:48.593Z,6.65
2023-06-19T19:39:16.053Z,6.78
2023-06-19T19:41:45.288Z,7.28
2023-06-19T19:44:12.781Z,7.50
2023-06-19T19:46:41.110Z,8.05
2023-06-19T19:49:08.564Z,7.13
2023-06-19T19:51:35.905Z,7.45
2023-06-19T19:54:03.320Z,7.65
2023-06-19T19:56:30.760Z,7.78
2023-06-19T19:58:58.470Z,7.32
2023-06-19T20:01:25.839Z,7.75
2023-06-19T20:03:53.202Z,7.45
2023-06-19T20:06:20.623Z,7.55
2023-06-19T20:08:47.950Z,10.15
2023-06-19T20:11:15.371Z,8.23
2023-06-19T20:13:42.589Z,8.45
2023-06-19T20:16:10.783Z,7.95
2023-06-19T20:18:38.660Z,7.75
2023-06-19T20:21:06.080Z,7.85
2023-06-19T20:23:33.388Z,7.60
2023-06-19T20:26:00.690Z,7.68
2023-06-19T20:28:28.589Z,7.53
2023-06-19T20:30:55.883Z,7.07
2023-06-19T20:33:23.502Z,7.60
2023-06-19T20:35:51.234Z,7.82
2023-06-19T20:38:21.372Z,8.07
2023-06-19T20:40:49.361Z,8.27
2023-06-19T20:43:16.640Z,8.10
2023-06-19T20:45:43.971Z,8.43
2023-06-19T20:48:11.618Z,7.90
2023-06-19T20:50:38.856Z,7.50
2023-06-19T20:53:06.230Z,7.55
2023-06-19T20:55:33.484Z,7.72
2023-06-19T20:58:05.658Z,7.60
2023-06-19T21:00:33.733Z,7.90
2023-06-19T21:03:01.483Z,8.15
2023-06-19T21:05:29.043Z,8.25
2023-06-19T21:07:56.359Z,8.30
2023-06-19T21:10:24.103Z,8.65
2023-06-19T21:12:51.613Z,8.32
2023-06-19T21:15:18.886Z,8.90
2023-06-19T21:17:46.295Z,8.48
2023-06-19T21:20:13.576Z,8.57
2023-06-19T21:22:41.210Z,8.60
2023-06-19T21:25:08.864Z,8.75
2023-06-19T21:27:36.495Z,8.07
2023-06-19T21:30:04.221Z,8.55
2023-06-19T21:32:31.512Z,8.57
2023-06-19T21:34:58.826Z,8.40
2023-06-19T21:37:26.123Z,7.93
2023-06-19T21:39:53.370Z,9.07
2023-06-19T21:42:20.646Z,8.07
2023-06-19T21:44:47.895Z,8.45
2023-06-19T21:47:15.115Z,8.70
2023-06-19T21:49:42.431Z,9.55
2023-06-19T21:52:10.179Z,9.07
2023-06-19T21:54:37.437Z,9.52
2023-06-19T21:57:04.761Z,9.77
2023-06-19T21:59:31.996Z,9.45
2023-06-19T22:01:59.255Z,9.25
2023-06-19T22:04:26.961Z,9.55
2023-06-19T22:06:54.188Z,8.77
2023-06-19T22:09:21.492Z,9.38
2023-06-19T22:11:48.772Z,9.13
2023-06-19T22:14:16.160Z,8.63
2023-06-19T22:16:43.372Z,8.93
2023-06-19T22:19:11.393Z,8.35
2023-06-19T22:21:42.829Z,8.57
2023-06-19T22:24:10.398Z,8.93
2023-06-19T22:26:43.470Z,8.88
2023-06-19T22:29:14.032Z,8.77
2023-06-19T22:31:41.537Z,8.77
2023-06-19T22:34:08.820Z,8.07
2023-06-19T22:36:36.039Z,8.80
2023-06-19T22:39:03.488Z,9.13
2023-06-19T22:41:30.720Z,8.60
2023-06-19T22:44:00.280Z,8.48
2023-06-19T22:46:27.581Z,8.63
2023-06-19T22:48:54.902Z,8.23
2023-06-19T22:51:22.167Z,8.13
2023-06-19T22:53:49.947Z,8.65
2023-06-19T22:56:17.254Z,7.60
2023-06-19T22:58:44.470Z,6.63
2023-06-19T23:01:11.955Z,6.10
2023-06-19T23:03:42.603Z,5.53
2023-06-19T23:06:10.452Z,5.78
2023-06-19T23:08:40.944Z,5.45
2023-06-19T23:11:11.899Z,6.20
2023-06-19T23:13:39.704Z,7.10
2023-06-19T23:16:10.099Z,7.95
2023-06-19T23:18:40.296Z,10.35
2023-06-19T23:21:07.627Z,9.27
2023-06-19T23:23:35.007Z,9.57
2023-06-19T23:26:02.318Z,10.85
2023-06-19T23:28:32.686Z,8.70
2023-06-19T23:31:00.801Z,9.32
2023-06-19T23:33:28.092Z,9.95
2023-06-19T23:35:57.752Z,8.73
2023-06-19T23:38:28.379Z,8.43
2023-06-19T23:40:55.648Z,7.53
2023-06-19T23:43:22.938Z,8.20
2023-06-19T23:45:52.474Z,7.80
2023-06-19T23:48:19.946Z,8.07
2023-06-19T23:50:47.285Z,7.75
2023-06-19T23:53:14.743Z,8.60
2023-06-19T23:55:41.957Z,8.38
2023-06-19T23:58:09.455Z,7.78
